createdAt,value
2023-03-05T00:00:56.929Z,3321.59673
2023-03-05T00:15:59.148Z,2317.77283
2023-03-05T00:31:01.859Z,2321.57557
2023-03-05T00:46:04.294Z,2273.09288
2023-03-05T01:01:06.560Z,2448.0974
2023-03-05T01:16:08.886Z,2644.86033
2023-03-05T01:31:11.432Z,2070.22728
2023-03-05T01:46:13.838Z,1737.26262
2023-03-05T02:01:16.467Z,1467.84284
2023-03-05T02:16:18.793Z,1127.49054
2023-03-05T02:31:21.229Z,1076.86504
2023-03-05T02:46:23.506Z,1102.02542
2023-03-05T03:01:25.794Z,1085.95599
2023-03-05T03:16:28.134Z,1241.22858
2023-03-05T03:31:30.376Z,1241.22858
2023-03-05T03:46:32.804Z,1155.10254
2023-03-05T04:01:35.062Z,1152.28063
2023-03-05T04:16:37.419Z,1167.49225
2023-03-05T04:31:39.705Z,1077.68519
2023-03-05T04:46:41.933Z,1085.1232
2023-03-05T05:01:44.483Z,1059.13224
2023-03-05T05:16:46.791Z,981.27651
2023-03-05T05:31:49.029Z,971.84116
2023-03-05T05:46:51.300Z,854.98539
2023-03-05T06:01:53.610Z,818.39263
2023-03-05T06:16:55.993Z,823.15349
2023-03-05T06:31:58.336Z,698.41276
2023-03-05T06:47:00.573Z,685.54193
2023-03-05T07:02:02.885Z,689.55485
2023-03-05T07:17:05.329Z,695.66311
2023-03-05T07:32:07.663Z,691.57898
2023-03-05T07:47:10.051Z,674.4215
2023-03-05T08:02:12.223Z,691.57898
2023-03-05T08:17:14.433Z,762.39274
2023-03-05T08:32:16.754Z,730.15878
2023-03-05T08:47:18.994Z,665.53083
2023-03-05T09:02:21.394Z,858.617
2023-03-05T09:17:23.677Z,1285.19578
2023-03-05T09:32:26.063Z,1744.76005
2023-03-05T09:47:28.234Z,1801.40088
2023-03-05T10:02:30.437Z,2015.67002
2023-03-05T10:17:32.651Z,2233.62324
2023-03-05T10:32:34.907Z,2327.30314
2023-03-05T10:47:37.291Z,2500.00051
2023-03-05T11:02:39.592Z,2441.76065
2023-03-05T11:17:41.988Z,2420.87305
2023-03-05T11:32:44.232Z,2465.15731
2023-03-05T11:47:46.479Z,2015.67002
2023-03-05T12:02:48.913Z,1822.27996
2023-03-05T12:17:51.229Z,1548.9879
2023-03-05T12:32:53.547Z,1780.99483
2023-03-05T12:47:55.815Z,1611.61781
2023-03-05T13:02:57.978Z,1368.47246
2023-03-05T13:18:00.220Z,1172.32859
2023-03-05T13:33:02.502Z,1173.30067
2023-03-05T13:48:04.754Z,1090.97968
2023-03-05T14:03:07.200Z,1124.80177
2023-03-05T14:18:09.547Z,1145.74949
2023-03-05T14:33:11.784Z,929.08783
2023-03-05T14:48:14.095Z,940.19983
2023-03-05T15:03:16.309Z,1012.16073
2023-03-05T15:18:18.549Z,1068.73162
2023-03-05T15:33:20.830Z,1165.56887
2023-03-05T15:48:23.012Z,1242.31833
2023-03-05T16:03:25.395Z,1214.59278
2023-03-05T16:18:27.655Z,1156.04626
2023-03-05T16:33:30.010Z,1412.17616
2023-03-05T16:48:32.352Z,1606.12989
2023-03-05T17:03:34.598Z,1552.38667
2023-03-05T17:18:36.849Z,1581.88982
2023-03-05T17:33:39.294Z,1568.73663
2023-03-05T17:48:41.700Z,1578.36078
2023-03-05T18:03:43.963Z,1693.59714
2023-03-05T18:18:46.211Z,2033.04648
2023-03-05T18:33:48.510Z,2260.38389
2023-03-05T18:48:50.985Z,2087.02115
2023-03-05T19:03:53.229Z,2040.37541
2023-03-05T19:18:55.477Z,2110.3659
2023-03-05T19:33:57.805Z,2145.56533
2023-03-05T19:49:00.019Z,2244.2511
2023-03-05T20:04:02.349Z,2091.64869
2023-03-05T20:19:04.621Z,1962.55251
2023-03-05T20:34:06.859Z,2115.09766
2023-03-05T20:49:09.306Z,1992.95825
2023-03-05T21:04:11.544Z,3236.13542
2023-03-05T21:19:13.835Z,4425.3328
2023-03-05T21:34:16.225Z,5299.62601
2023-03-05T21:49:18.495Z,5648.70315
2023-03-05T22:04:20.673Z,6309.92243
2023-03-05T22:19:22.934Z,6600.58357
2023-03-05T22:34:25.163Z,6686.35606
2023-03-05T22:49:27.672Z,7210.19157
2023-03-05T23:04:29.952Z,7617.76631
2023-03-05T23:19:32.365Z,8155.6201
2023-03-05T23:34:34.642Z,8410.10452
2023-03-05T23:49:36.900Z,8634.63057
